Terminal Aerodrome Forecast
Issued by NWS Upton, NY

Home | Current Version | Previous Version | Text Only | Print | Product List | Glossary On
Versions: 1 2 3 4 5 6 7 8 9 10 11 12 13 14 15 16 17 18 19 20 21 22 23 24 25 26 27 28 29 30 31 32 33 34
000
FTUS41 KOKX 241545 AAB
TAFISP
TAF AMD
KISP 241545Z 2416/2512 18005KT P6SM FEW005
      TEMPO 2422/2424 4SM BR BKN004
     FM250000 17010KT 2SM BR BKN003
     FM250400 16005KT 1SM BR BKN003=

USA.gov is the U.S. government's official web portal to all federal, state and local government web resources and services.